sensor_id;sensor_type;location;lat;lon;timestamp;P1;durP1;ratioP1;P2;durP2;ratioP2
30617;SDS011;17384;51.214;9.202;2023-12-04T00:00:36;53.53;;;23.20;;
30617;SDS011;17384;51.214;9.202;2023-12-04T00:03:01;54.90;;;22.05;;
30617;SDS011;17384;51.214;9.202;2023-12-04T00:05:27;50.38;;;21.10;;
30617;SDS011;17384;51.214;9.202;2023-12-04T00:07:52;50.47;;;22.38;;
30617;SDS011;17384;51.214;9.202;2023-12-04T00:10:18;58.30;;;23.45;;
30617;SDS011;17384;51.214;9.202;2023-12-04T00:12:43;50.45;;;22.85;;
30617;SDS011;17384;51.214;9.202;2023-12-04T00:15:09;51.63;;;21.65;;
30617;SDS011;17384;51.214;9.202;2023-12-04T00:17:35;46.10;;;18.90;;
30617;SDS011;17384;51.214;9.202;2023-12-04T00:20:05;48.88;;;21.17;;
30617;SDS011;17384;51.214;9.202;2023-12-04T00:22:31;50.13;;;21.33;;
30617;SDS011;17384;51.214;9.202;2023-12-04T00:24:57;49.80;;;21.85;;
30617;SDS011;17384;51.214;9.202;2023-12-04T00:27:23;47.50;;;21.98;;
30617;SDS011;17384;51.214;9.202;2023-12-04T00:29:52;49.45;;;21.98;;
30617;SDS011;17384;51.214;9.202;2023-12-04T00:32:18;54.80;;;22.20;;
30617;SDS011;17384;51.214;9.202;2023-12-04T00:34:43;50.47;;;22.95;;
30617;SDS011;17384;51.214;9.202;2023-12-04T00:37:09;49.60;;;21.58;;
30617;SDS011;17384;51.214;9.202;2023-12-04T00:39:34;50.75;;;21.83;;
30617;SDS011;17384;51.214;9.202;2023-12-04T00:42:00;47.35;;;20.75;;
30617;SDS011;17384;51.214;9.202;2023-12-04T00:44:26;43.55;;;18.48;;
30617;SDS011;17384;51.214;9.202;2023-12-04T00:46:51;43.83;;;18.08;;
30617;SDS011;17384;51.214;9.202;2023-12-04T00:49:17;43.55;;;16.95;;
30617;SDS011;17384;51.214;9.202;2023-12-04T00:51:42;52.83;;;19.27;;
30617;SDS011;17384;51.214;9.202;2023-12-04T00:54:07;47.72;;;17.73;;
30617;SDS011;17384;51.214;9.202;2023-12-04T00:56:33;45.38;;;17.48;;
30617;SDS011;17384;51.214;9.202;2023-12-04T00:58:59;39.72;;;18.23;;
30617;SDS011;17384;51.214;9.202;2023-12-04T01:01:24;43.05;;;20.02;;
30617;SDS011;17384;51.214;9.202;2023-12-04T01:03:50;49.70;;;20.73;;
30617;SDS011;17384;51.214;9.202;2023-12-04T01:06:22;40.70;;;19.25;;
30617;SDS011;17384;51.214;9.202;2023-12-04T01:08:48;44.40;;;19.75;;
30617;SDS011;17384;51.214;9.202;2023-12-04T01:11:15;52.92;;;21.83;;
30617;SDS011;17384;51.214;9.202;2023-12-04T01:13:42;42.55;;;18.05;;
30617;SDS011;17384;51.214;9.202;2023-12-04T01:16:07;42.63;;;20.77;;
30617;SDS011;17384;51.214;9.202;2023-12-04T01:18:34;42.63;;;19.30;;
30617;SDS011;17384;51.214;9.202;2023-12-04T01:20:59;45.55;;;21.23;;
30617;SDS011;17384;51.214;9.202;2023-12-04T01:23:25;43.58;;;19.35;;
30617;SDS011;17384;51.214;9.202;2023-12-04T01:25:50;45.95;;;20.20;;
30617;SDS011;17384;51.214;9.202;2023-12-04T01:28:16;39.97;;;18.67;;
30617;SDS011;17384;51.214;9.202;2023-12-04T01:30:41;43.78;;;19.42;;
30617;SDS011;17384;51.214;9.202;2023-12-04T01:33:07;42.95;;;19.40;;
30617;SDS011;17384;51.214;9.202;2023-12-04T01:35:33;45.85;;;20.08;;
30617;SDS011;17384;51.214;9.202;2023-12-04T01:37:59;43.13;;;19.98;;
30617;SDS011;17384;51.214;9.202;2023-12-04T01:40:24;36.30;;;18.88;;
30617;SDS011;17384;51.214;9.202;2023-12-04T01:42:51;42.95;;;19.50;;
30617;SDS011;17384;51.214;9.202;2023-12-04T01:45:16;39.17;;;18.13;;
30617;SDS011;17384;51.214;9.202;2023-12-04T01:47:42;39.05;;;18.10;;
30617;SDS011;17384;51.214;9.202;2023-12-04T01:50:08;39.25;;;18.45;;
30617;SDS011;17384;51.214;9.202;2023-12-04T01:52:34;43.22;;;20.92;;
30617;SDS011;17384;51.214;9.202;2023-12-04T01:55:01;41.72;;;18.92;;
30617;SDS011;17384;51.214;9.202;2023-12-04T01:57:27;39.30;;;17.65;;
30617;SDS011;17384;51.214;9.202;2023-12-04T01:59:53;38.78;;;19.33;;
30617;SDS011;17384;51.214;9.202;2023-12-04T02:02:19;42.42;;;17.63;;
30617;SDS011;17384;51.214;9.202;2023-12-04T02:04:45;39.58;;;16.88;;
30617;SDS011;17384;51.214;9.202;2023-12-04T02:07:11;35.00;;;17.02;;
30617;SDS011;17384;51.214;9.202;2023-12-04T02:09:37;43.22;;;16.88;;
30617;SDS011;17384;51.214;9.202;2023-12-04T02:12:02;29.98;;;15.63;;
30617;SDS011;17384;51.214;9.202;2023-12-04T02:14:28;43.72;;;17.85;;
30617;SDS011;17384;51.214;9.202;2023-12-04T02:16:54;37.55;;;15.82;;
30617;SDS011;17384;51.214;9.202;2023-12-04T02:19:21;37.70;;;16.65;;
30617;SDS011;17384;51.214;9.202;2023-12-04T02:21:47;33.65;;;15.80;;
30617;SDS011;17384;51.214;9.202;2023-12-04T02:24:12;32.25;;;15.32;;
30617;SDS011;17384;51.214;9.202;2023-12-04T02:26:44;36.17;;;16.73;;
30617;SDS011;17384;51.214;9.202;2023-12-04T02:29:19;42.67;;;18.50;;
30617;SDS011;17384;51.214;9.202;2023-12-04T02:31:51;32.85;;;14.68;;
30617;SDS011;17384;51.214;9.202;2023-12-04T02:34:20;35.88;;;16.83;;
30617;SDS011;17384;51.214;9.202;2023-12-04T02:36:48;39.17;;;17.35;;
30617;SDS011;17384;51.214;9.202;2023-12-04T02:39:15;46.25;;;19.67;;
30617;SDS011;17384;51.214;9.202;2023-12-04T02:41:40;38.45;;;17.17;;
30617;SDS011;17384;51.214;9.202;2023-12-04T02:44:05;34.83;;;16.35;;
30617;SDS011;17384;51.214;9.202;2023-12-04T02:46:31;33.63;;;15.07;;
30617;SDS011;17384;51.214;9.202;2023-12-04T02:48:56;35.15;;;15.35;;
30617;SDS011;17384;51.214;9.202;2023-12-04T02:51:22;36.75;;;16.23;;
30617;SDS011;17384;51.214;9.202;2023-12-04T02:53:47;35.83;;;15.32;;
30617;SDS011;17384;51.214;9.202;2023-12-04T02:56:13;35.35;;;16.42;;
30617;SDS011;17384;51.214;9.202;2023-12-04T02:58:38;34.70;;;16.98;;
30617;SDS011;17384;51.214;9.202;2023-12-04T03:01:04;33.83;;;16.20;;
30617;SDS011;17384;51.214;9.202;2023-12-04T03:03:30;35.40;;;15.25;;
30617;SDS011;17384;51.214;9.202;2023-12-04T03:05:55;34.00;;;16.25;;
30617;SDS011;17384;51.214;9.202;2023-12-04T03:08:21;37.88;;;16.92;;
30617;SDS011;17384;51.214;9.202;2023-12-04T03:10:46;36.33;;;16.02;;
30617;SDS011;17384;51.214;9.202;2023-12-04T03:13:12;40.58;;;17.95;;
30617;SDS011;17384;51.214;9.202;2023-12-04T03:15:37;36.20;;;16.60;;
30617;SDS011;17384;51.214;9.202;2023-12-04T03:18:03;35.90;;;15.75;;
30617;SDS011;17384;51.214;9.202;2023-12-04T03:20:28;39.15;;;17.30;;
30617;SDS011;17384;51.214;9.202;2023-12-04T03:22:54;35.40;;;15.70;;
30617;SDS011;17384;51.214;9.202;2023-12-04T03:25:19;35.05;;;17.40;;
30617;SDS011;17384;51.214;9.202;2023-12-04T03:27:44;37.30;;;16.00;;
30617;SDS011;17384;51.214;9.202;2023-12-04T03:30:10;33.95;;;15.82;;
30617;SDS011;17384;51.214;9.202;2023-12-04T03:32:36;33.17;;;15.55;;
30617;SDS011;17384;51.214;9.202;2023-12-04T03:35:01;33.15;;;15.65;;
30617;SDS011;17384;51.214;9.202;2023-12-04T03:37:27;32.30;;;15.07;;
30617;SDS011;17384;51.214;9.202;2023-12-04T03:39:53;35.13;;;17.20;;
30617;SDS011;17384;51.214;9.202;2023-12-04T03:42:18;40.45;;;17.60;;
30617;SDS011;17384;51.214;9.202;2023-12-04T03:44:44;34.17;;;15.32;;
30617;SDS011;17384;51.214;9.202;2023-12-04T03:47:09;35.72;;;17.05;;
30617;SDS011;17384;51.214;9.202;2023-12-04T03:49:34;40.25;;;17.77;;
30617;SDS011;17384;51.214;9.202;2023-12-04T03:52:00;35.70;;;16.65;;
30617;SDS011;17384;51.214;9.202;2023-12-04T03:54:25;38.75;;;16.90;;
30617;SDS011;17384;51.214;9.202;2023-12-04T03:56:51;35.83;;;16.70;;
30617;SDS011;17384;51.214;9.202;2023-12-04T03:59:16;38.05;;;17.20;;
30617;SDS011;17384;51.214;9.202;2023-12-04T04:01:42;46.03;;;19.35;;
30617;SDS011;17384;51.214;9.202;2023-12-04T04:04:07;41.25;;;19.10;;
30617;SDS011;17384;51.214;9.202;2023-12-04T04:06:33;40.78;;;19.40;;
30617;SDS011;17384;51.214;9.202;2023-12-04T04:08:58;38.85;;;18.67;;
30617;SDS011;17384;51.214;9.202;2023-12-04T04:11:23;35.55;;;17.55;;
30617;SDS011;17384;51.214;9.202;2023-12-04T04:13:49;33.33;;;16.80;;
30617;SDS011;17384;51.214;9.202;2023-12-04T04:16:15;39.72;;;18.95;;
30617;SDS011;17384;51.214;9.202;2023-12-04T04:18:41;36.28;;;17.60;;
30617;SDS011;17384;51.214;9.202;2023-12-04T04:21:08;42.97;;;19.10;;
30617;SDS011;17384;51.214;9.202;2023-12-04T04:23:34;46.33;;;19.55;;
30617;SDS011;17384;51.214;9.202;2023-12-04T04:25:59;40.67;;;18.42;;
30617;SDS011;17384;51.214;9.202;2023-12-04T04:28:25;42.03;;;19.02;;
30617;SDS011;17384;51.214;9.202;2023-12-04T04:30:50;38.75;;;16.88;;
30617;SDS011;17384;51.214;9.202;2023-12-04T04:33:16;43.38;;;18.05;;
30617;SDS011;17384;51.214;9.202;2023-12-04T04:35:42;40.72;;;18.35;;
30617;SDS011;17384;51.214;9.202;2023-12-04T04:38:08;39.50;;;18.50;;
30617;SDS011;17384;51.214;9.202;2023-12-04T04:40:34;60.25;;;23.38;;
30617;SDS011;17384;51.214;9.202;2023-12-04T04:43:00;38.80;;;19.13;;
30617;SDS011;17384;51.214;9.202;2023-12-04T04:45:26;37.00;;;18.60;;
30617;SDS011;17384;51.214;9.202;2023-12-04T04:47:51;38.92;;;18.90;;
30617;SDS011;17384;51.214;9.202;2023-12-04T04:50:17;37.80;;;18.42;;
30617;SDS011;17384;51.214;9.202;2023-12-04T04:52:42;42.05;;;19.70;;
30617;SDS011;17384;51.214;9.202;2023-12-04T04:55:08;39.92;;;18.17;;
30617;SDS011;17384;51.214;9.202;2023-12-04T04:57:34;44.22;;;18.55;;
30617;SDS011;17384;51.214;9.202;2023-12-04T04:59:59;42.83;;;18.75;;
30617;SDS011;17384;51.214;9.202;2023-12-04T05:02:25;39.88;;;17.75;;
30617;SDS011;17384;51.214;9.202;2023-12-04T05:04:50;42.78;;;19.25;;
30617;SDS011;17384;51.214;9.202;2023-12-04T05:07:16;41.70;;;19.70;;
30617;SDS011;17384;51.214;9.202;2023-12-04T05:09:41;40.55;;;19.58;;
30617;SDS011;17384;51.214;9.202;2023-12-04T05:12:07;40.17;;;18.85;;
30617;SDS011;17384;51.214;9.202;2023-12-04T05:14:32;35.05;;;17.58;;
30617;SDS011;17384;51.214;9.202;2023-12-04T05:16:58;40.60;;;18.35;;
30617;SDS011;17384;51.214;9.202;2023-12-04T05:19:23;45.25;;;19.08;;
30617;SDS011;17384;51.214;9.202;2023-12-04T05:21:49;42.75;;;19.40;;
30617;SDS011;17384;51.214;9.202;2023-12-04T05:24:14;39.50;;;18.40;;
30617;SDS011;17384;51.214;9.202;2023-12-04T05:26:40;38.15;;;18.52;;
30617;SDS011;17384;51.214;9.202;2023-12-04T05:29:05;41.63;;;19.30;;
30617;SDS011;17384;51.214;9.202;2023-12-04T05:31:31;45.47;;;18.85;;
30617;SDS011;17384;51.214;9.202;2023-12-04T05:33:56;38.92;;;18.17;;
30617;SDS011;17384;51.214;9.202;2023-12-04T05:36:21;40.85;;;18.77;;
30617;SDS011;17384;51.214;9.202;2023-12-04T05:38:47;43.58;;;20.30;;
30617;SDS011;17384;51.214;9.202;2023-12-04T05:41:12;41.83;;;19.23;;
30617;SDS011;17384;51.214;9.202;2023-12-04T05:43:38;44.83;;;19.45;;
30617;SDS011;17384;51.214;9.202;2023-12-04T05:46:03;43.30;;;20.25;;
30617;SDS011;17384;51.214;9.202;2023-12-04T05:48:29;36.90;;;17.88;;
30617;SDS011;17384;51.214;9.202;2023-12-04T05:50:54;44.10;;;19.73;;
30617;SDS011;17384;51.214;9.202;2023-12-04T05:53:20;46.08;;;20.52;;
30617;SDS011;17384;51.214;9.202;2023-12-04T05:55:45;39.88;;;19.15;;
30617;SDS011;17384;51.214;9.202;2023-12-04T05:58:11;37.35;;;18.52;;
30617;SDS011;17384;51.214;9.202;2023-12-04T06:00:37;45.40;;;19.70;;
30617;SDS011;17384;51.214;9.202;2023-12-04T06:03:02;46.83;;;20.98;;
30617;SDS011;17384;51.214;9.202;2023-12-04T06:05:28;39.90;;;19.25;;
30617;SDS011;17384;51.214;9.202;2023-12-04T06:07:53;38.58;;;18.90;;
30617;SDS011;17384;51.214;9.202;2023-12-04T06:10:19;40.30;;;18.38;;
30617;SDS011;17384;51.214;9.202;2023-12-04T06:12:44;39.88;;;19.95;;
30617;SDS011;17384;51.214;9.202;2023-12-04T06:15:10;37.63;;;17.80;;
30617;SDS011;17384;51.214;9.202;2023-12-04T06:17:35;35.65;;;17.80;;
30617;SDS011;17384;51.214;9.202;2023-12-04T06:20:01;46.90;;;20.27;;
30617;SDS011;17384;51.214;9.202;2023-12-04T06:22:26;38.45;;;17.85;;
30617;SDS011;17384;51.214;9.202;2023-12-04T06:24:52;37.55;;;19.30;;
30617;SDS011;17384;51.214;9.202;2023-12-04T06:27:18;38.90;;;19.00;;
30617;SDS011;17384;51.214;9.202;2023-12-04T06:29:48;41.25;;;19.55;;
30617;SDS011;17384;51.214;9.202;2023-12-04T06:32:14;37.55;;;19.20;;
30617;SDS011;17384;51.214;9.202;2023-12-04T06:34:40;38.42;;;18.55;;
30617;SDS011;17384;51.214;9.202;2023-12-04T06:37:10;37.85;;;19.13;;
30617;SDS011;17384;51.214;9.202;2023-12-04T06:39:37;41.42;;;18.38;;
30617;SDS011;17384;51.214;9.202;2023-12-04T06:42:07;36.17;;;17.73;;
30617;SDS011;17384;51.214;9.202;2023-12-04T06:44:33;44.22;;;18.35;;
30617;SDS011;17384;51.214;9.202;2023-12-04T06:47:02;38.15;;;18.15;;
30617;SDS011;17384;51.214;9.202;2023-12-04T06:49:30;40.45;;;18.95;;
30617;SDS011;17384;51.214;9.202;2023-12-04T06:51:59;41.50;;;18.95;;
30617;SDS011;17384;51.214;9.202;2023-12-04T06:54:25;40.58;;;18.55;;
30617;SDS011;17384;51.214;9.202;2023-12-04T06:56:51;34.92;;;16.70;;
30617;SDS011;17384;51.214;9.202;2023-12-04T06:59:17;38.60;;;18.67;;
30617;SDS011;17384;51.214;9.202;2023-12-04T07:01:43;44.10;;;19.10;;
30617;SDS011;17384;51.214;9.202;2023-12-04T07:04:09;33.60;;;15.73;;
30617;SDS011;17384;51.214;9.202;2023-12-04T07:06:38;40.10;;;18.85;;
30617;SDS011;17384;51.214;9.202;2023-12-04T07:09:04;43.20;;;18.63;;
30617;SDS011;17384;51.214;9.202;2023-12-04T07:11:32;50.33;;;20.13;;
30617;SDS011;17384;51.214;9.202;2023-12-04T07:13:58;42.78;;;18.77;;
30617;SDS011;17384;51.214;9.202;2023-12-04T07:16:24;41.92;;;18.90;;
30617;SDS011;17384;51.214;9.202;2023-12-04T07:18:49;41.83;;;18.50;;
30617;SDS011;17384;51.214;9.202;2023-12-04T07:21:15;39.97;;;17.90;;
30617;SDS011;17384;51.214;9.202;2023-12-04T07:23:41;46.88;;;20.10;;
30617;SDS011;17384;51.214;9.202;2023-12-04T07:26:06;72.88;;;29.00;;
30617;SDS011;17384;51.214;9.202;2023-12-04T07:28:32;70.95;;;27.95;;
30617;SDS011;17384;51.214;9.202;2023-12-04T07:30:58;54.13;;;23.02;;
30617;SDS011;17384;51.214;9.202;2023-12-04T07:33:23;54.50;;;22.92;;
30617;SDS011;17384;51.214;9.202;2023-12-04T07:35:49;45.85;;;21.33;;
30617;SDS011;17384;51.214;9.202;2023-12-04T07:38:16;48.88;;;20.63;;
30617;SDS011;17384;51.214;9.202;2023-12-04T07:40:41;40.55;;;20.63;;
30617;SDS011;17384;51.214;9.202;2023-12-04T07:43:07;41.67;;;18.33;;
30617;SDS011;17384;51.214;9.202;2023-12-04T07:45:32;42.60;;;19.27;;
30617;SDS011;17384;51.214;9.202;2023-12-04T07:47:59;43.33;;;20.00;;
30617;SDS011;17384;51.214;9.202;2023-12-04T07:50:25;47.10;;;20.40;;
30617;SDS011;17384;51.214;9.202;2023-12-04T07:52:51;42.50;;;20.50;;
30617;SDS011;17384;51.214;9.202;2023-12-04T07:55:16;57.55;;;26.17;;
30617;SDS011;17384;51.214;9.202;2023-12-04T07:57:42;63.85;;;30.02;;
30617;SDS011;17384;51.214;9.202;2023-12-04T08:00:08;42.33;;;18.38;;
30617;SDS011;17384;51.214;9.202;2023-12-04T08:02:33;38.17;;;18.08;;
30617;SDS011;17384;51.214;9.202;2023-12-04T08:04:59;42.10;;;19.02;;
30617;SDS011;17384;51.214;9.202;2023-12-04T08:07:24;39.55;;;19.02;;
30617;SDS011;17384;51.214;9.202;2023-12-04T08:09:50;41.58;;;19.38;;
30617;SDS011;17384;51.214;9.202;2023-12-04T08:12:15;43.47;;;19.90;;
30617;SDS011;17384;51.214;9.202;2023-12-04T08:14:41;43.90;;;20.35;;
30617;SDS011;17384;51.214;9.202;2023-12-04T08:17:06;45.65;;;20.98;;
30617;SDS011;17384;51.214;9.202;2023-12-04T08:19:32;44.78;;;19.63;;
30617;SDS011;17384;51.214;9.202;2023-12-04T08:21:59;47.25;;;20.95;;
30617;SDS011;17384;51.214;9.202;2023-12-04T08:24:24;37.97;;;17.67;;
30617;SDS011;17384;51.214;9.202;2023-12-04T08:26:49;35.38;;;17.17;;
30617;SDS011;17384;51.214;9.202;2023-12-04T08:29:16;38.78;;;18.55;;
30617;SDS011;17384;51.214;9.202;2023-12-04T08:31:41;35.58;;;17.08;;
30617;SDS011;17384;51.214;9.202;2023-12-04T08:34:07;37.67;;;17.85;;
30617;SDS011;17384;51.214;9.202;2023-12-04T08:36:32;35.97;;;17.20;;
30617;SDS011;17384;51.214;9.202;2023-12-04T08:38:58;37.20;;;18.00;;
30617;SDS011;17384;51.214;9.202;2023-12-04T08:41:23;38.03;;;16.80;;
30617;SDS011;17384;51.214;9.202;2023-12-04T08:43:49;30.90;;;16.63;;
30617;SDS011;17384;51.214;9.202;2023-12-04T08:46:14;34.42;;;16.40;;
30617;SDS011;17384;51.214;9.202;2023-12-04T08:48:42;39.13;;;17.63;;
30617;SDS011;17384;51.214;9.202;2023-12-04T08:51:08;42.92;;;17.42;;
30617;SDS011;17384;51.214;9.202;2023-12-04T08:53:40;39.78;;;17.02;;
30617;SDS011;17384;51.214;9.202;2023-12-04T08:56:06;34.50;;;16.05;;
30617;SDS011;17384;51.214;9.202;2023-12-04T08:58:32;38.70;;;18.35;;
30617;SDS011;17384;51.214;9.202;2023-12-04T09:00:57;36.60;;;16.73;;
30617;SDS011;17384;51.214;9.202;2023-12-04T09:03:23;31.40;;;16.27;;
30617;SDS011;17384;51.214;9.202;2023-12-04T09:05:49;36.10;;;17.13;;
30617;SDS011;17384;51.214;9.202;2023-12-04T09:08:16;37.60;;;18.27;;
30617;SDS011;17384;51.214;9.202;2023-12-04T09:10:43;39.53;;;17.80;;
30617;SDS011;17384;51.214;9.202;2023-12-04T09:13:09;32.97;;;17.17;;
30617;SDS011;17384;51.214;9.202;2023-12-04T09:15:35;40.58;;;18.67;;
30617;SDS011;17384;51.214;9.202;2023-12-04T09:18:00;43.80;;;18.30;;
30617;SDS011;17384;51.214;9.202;2023-12-04T09:20:25;36.90;;;15.80;;
30617;SDS011;17384;51.214;9.202;2023-12-04T09:22:51;39.65;;;17.92;;
30617;SDS011;17384;51.214;9.202;2023-12-04T09:25:16;37.25;;;17.60;;
30617;SDS011;17384;51.214;9.202;2023-12-04T09:27:42;38.72;;;17.02;;
30617;SDS011;17384;51.214;9.202;2023-12-04T09:30:08;38.65;;;17.38;;
30617;SDS011;17384;51.214;9.202;2023-12-04T09:32:34;36.45;;;17.00;;
30617;SDS011;17384;51.214;9.202;2023-12-04T09:34:59;38.50;;;17.90;;
30617;SDS011;17384;51.214;9.202;2023-12-04T09:37:25;35.67;;;17.88;;
30617;SDS011;17384;51.214;9.202;2023-12-04T09:39:50;37.90;;;16.75;;
30617;SDS011;17384;51.214;9.202;2023-12-04T09:42:16;33.28;;;16.88;;
30617;SDS011;17384;51.214;9.202;2023-12-04T09:44:47;38.47;;;16.77;;
30617;SDS011;17384;51.214;9.202;2023-12-04T09:47:15;35.13;;;16.50;;
30617;SDS011;17384;51.214;9.202;2023-12-04T09:49:42;38.42;;;17.30;;
30617;SDS011;17384;51.214;9.202;2023-12-04T09:52:10;37.40;;;16.00;;
30617;SDS011;17384;51.214;9.202;2023-12-04T09:54:35;32.78;;;16.13;;
30617;SDS011;17384;51.214;9.202;2023-12-04T09:57:03;35.70;;;15.00;;
30617;SDS011;17384;51.214;9.202;2023-12-04T09:59:29;32.17;;;15.52;;
30617;SDS011;17384;51.214;9.202;2023-12-04T10:01:56;32.72;;;14.60;;
30617;SDS011;17384;51.214;9.202;2023-12-04T10:04:25;31.30;;;15.38;;
30617;SDS011;17384;51.214;9.202;2023-12-04T10:06:51;31.13;;;15.48;;
30617;SDS011;17384;51.214;9.202;2023-12-04T10:09:17;32.67;;;15.95;;
30617;SDS011;17384;51.214;9.202;2023-12-04T10:11:46;36.15;;;16.77;;
30617;SDS011;17384;51.214;9.202;2023-12-04T10:14:18;29.88;;;14.35;;
30617;SDS011;17384;51.214;9.202;2023-12-04T10:16:45;29.30;;;14.52;;
30617;SDS011;17384;51.214;9.202;2023-12-04T10:19:15;25.98;;;14.30;;
30617;SDS011;17384;51.214;9.202;2023-12-04T10:21:43;33.08;;;15.80;;
30617;SDS011;17384;51.214;9.202;2023-12-04T10:24:12;33.30;;;15.98;;
30617;SDS011;17384;51.214;9.202;2023-12-04T10:26:51;32.30;;;15.55;;
30617;SDS011;17384;51.214;9.202;2023-12-04T10:29:16;35.47;;;15.95;;
30617;SDS011;17384;51.214;9.202;2023-12-04T10:31:42;34.70;;;17.52;;
30617;SDS011;17384;51.214;9.202;2023-12-04T10:34:07;36.88;;;17.67;;
30617;SDS011;17384;51.214;9.202;2023-12-04T10:36:35;39.60;;;17.95;;
30617;SDS011;17384;51.214;9.202;2023-12-04T10:39:01;33.20;;;15.60;;
30617;SDS011;17384;51.214;9.202;2023-12-04T10:41:30;37.70;;;17.67;;
30617;SDS011;17384;51.214;9.202;2023-12-04T10:43:56;28.05;;;15.30;;
30617;SDS011;17384;51.214;9.202;2023-12-04T10:46:23;58.40;;;24.88;;
30617;SDS011;17384;51.214;9.202;2023-12-04T10:48:49;40.70;;;19.73;;
30617;SDS011;17384;51.214;9.202;2023-12-04T10:51:16;54.45;;;24.50;;
30617;SDS011;17384;51.214;9.202;2023-12-04T10:53:42;40.15;;;18.55;;
30617;SDS011;17384;51.214;9.202;2023-12-04T10:56:10;35.55;;;17.35;;
30617;SDS011;17384;51.214;9.202;2023-12-04T10:58:40;36.40;;;16.55;;
30617;SDS011;17384;51.214;9.202;2023-12-04T11:01:06;50.42;;;22.30;;
30617;SDS011;17384;51.214;9.202;2023-12-04T11:04:07;35.00;;;17.05;;
30617;SDS011;17384;51.214;9.202;2023-12-04T11:06:32;39.25;;;17.48;;
30617;SDS011;17384;51.214;9.202;2023-12-04T11:09:04;35.38;;;15.82;;
30617;SDS011;17384;51.214;9.202;2023-12-04T11:11:31;35.70;;;16.45;;
30617;SDS011;17384;51.214;9.202;2023-12-04T11:14:01;28.58;;;14.55;;
30617;SDS011;17384;51.214;9.202;2023-12-04T11:16:34;32.75;;;16.52;;
30617;SDS011;17384;51.214;9.202;2023-12-04T11:22:02;32.03;;;15.27;;
30617;SDS011;17384;51.214;9.202;2023-12-04T11:24:29;31.17;;;14.48;;
30617;SDS011;17384;51.214;9.202;2023-12-04T11:26:55;32.88;;;15.07;;
30617;SDS011;17384;51.214;9.202;2023-12-04T11:29:21;31.40;;;15.40;;
30617;SDS011;17384;51.214;9.202;2023-12-04T11:31:48;30.02;;;14.93;;
30617;SDS011;17384;51.214;9.202;2023-12-04T11:34:13;27.77;;;14.20;;
30617;SDS011;17384;51.214;9.202;2023-12-04T11:36:39;30.48;;;15.43;;
30617;SDS011;17384;51.214;9.202;2023-12-04T11:39:11;33.75;;;15.90;;
30617;SDS011;17384;51.214;9.202;2023-12-04T11:41:37;28.70;;;14.38;;
30617;SDS011;17384;51.214;9.202;2023-12-04T11:44:03;27.75;;;14.52;;
30617;SDS011;17384;51.214;9.202;2023-12-04T11:46:29;31.35;;;16.02;;
30617;SDS011;17384;51.214;9.202;2023-12-04T11:48:57;26.90;;;13.82;;
30617;SDS011;17384;51.214;9.202;2023-12-04T11:51:53;35.25;;;15.50;;
30617;SDS011;17384;51.214;9.202;2023-12-04T11:54:19;30.20;;;14.13;;
30617;SDS011;17384;51.214;9.202;2023-12-04T11:59:39;31.20;;;13.57;;
30617;SDS011;17384;51.214;9.202;2023-12-04T12:02:08;24.55;;;12.88;;
30617;SDS011;17384;51.214;9.202;2023-12-04T12:04:34;30.60;;;14.70;;
30617;SDS011;17384;51.214;9.202;2023-12-04T12:07:00;29.15;;;13.90;;
30617;SDS011;17384;51.214;9.202;2023-12-04T12:09:27;30.90;;;13.77;;
30617;SDS011;17384;51.214;9.202;2023-12-04T12:11:54;31.70;;;13.95;;
30617;SDS011;17384;51.214;9.202;2023-12-04T12:14:22;28.88;;;14.25;;
30617;SDS011;17384;51.214;9.202;2023-12-04T12:16:48;27.60;;;14.05;;
30617;SDS011;17384;51.214;9.202;2023-12-04T12:19:13;28.58;;;14.80;;
30617;SDS011;17384;51.214;9.202;2023-12-04T12:21:39;28.55;;;14.32;;
30617;SDS011;17384;51.214;9.202;2023-12-04T12:24:06;28.08;;;14.15;;
30617;SDS011;17384;51.214;9.202;2023-12-04T12:26:32;33.05;;;14.32;;
30617;SDS011;17384;51.214;9.202;2023-12-04T12:28:58;26.98;;;13.68;;
30617;SDS011;17384;51.214;9.202;2023-12-04T12:31:23;22.17;;;11.95;;
30617;SDS011;17384;51.214;9.202;2023-12-04T12:33:49;21.00;;;12.60;;
30617;SDS011;17384;51.214;9.202;2023-12-04T12:36:14;17.95;;;10.88;;
30617;SDS011;17384;51.214;9.202;2023-12-04T12:38:43;18.23;;;8.90;;
30617;SDS011;17384;51.214;9.202;2023-12-04T12:41:15;31.27;;;10.75;;
30617;SDS011;17384;51.214;9.202;2023-12-04T12:43:42;17.98;;;9.70;;
30617;SDS011;17384;51.214;9.202;2023-12-04T12:46:08;23.50;;;10.02;;
30617;SDS011;17384;51.214;9.202;2023-12-04T12:48:34;20.00;;;10.75;;
30617;SDS011;17384;51.214;9.202;2023-12-04T12:51:01;17.40;;;9.63;;
30617;SDS011;17384;51.214;9.202;2023-12-04T12:53:28;23.50;;;11.38;;
30617;SDS011;17384;51.214;9.202;2023-12-04T12:55:53;27.65;;;12.10;;
30617;SDS011;17384;51.214;9.202;2023-12-04T12:58:19;19.83;;;9.70;;
30617;SDS011;17384;51.214;9.202;2023-12-04T13:00:46;20.17;;;10.27;;
30617;SDS011;17384;51.214;9.202;2023-12-04T13:03:16;35.00;;;11.98;;
30617;SDS011;17384;51.214;9.202;2023-12-04T13:05:42;23.77;;;11.50;;
30617;SDS011;17384;51.214;9.202;2023-12-04T13:08:07;20.35;;;10.55;;
30617;SDS011;17384;51.214;9.202;2023-12-04T13:10:33;21.27;;;10.73;;
30617;SDS011;17384;51.214;9.202;2023-12-04T13:12:58;20.35;;;10.38;;
30617;SDS011;17384;51.214;9.202;2023-12-04T13:15:25;18.63;;;9.77;;
30617;SDS011;17384;51.214;9.202;2023-12-04T13:17:51;18.88;;;8.52;;
30617;SDS011;17384;51.214;9.202;2023-12-04T13:20:16;18.23;;;10.07;;
30617;SDS011;17384;51.214;9.202;2023-12-04T13:22:43;19.45;;;9.18;;
30617;SDS011;17384;51.214;9.202;2023-12-04T13:25:08;14.20;;;9.00;;
30617;SDS011;17384;51.214;9.202;2023-12-04T13:27:38;22.98;;;11.75;;
30617;SDS011;17384;51.214;9.202;2023-12-04T13:30:06;13.85;;;7.95;;
30617;SDS011;17384;51.214;9.202;2023-12-04T13:32:38;13.93;;;8.65;;
30617;SDS011;17384;51.214;9.202;2023-12-04T13:35:04;19.05;;;8.63;;
30617;SDS011;17384;51.214;9.202;2023-12-04T13:37:34;16.92;;;7.80;;
30617;SDS011;17384;51.214;9.202;2023-12-04T13:40:01;17.10;;;8.93;;
30617;SDS011;17384;51.214;9.202;2023-12-04T13:42:32;16.10;;;8.48;;
30617;SDS011;17384;51.214;9.202;2023-12-04T13:45:16;21.90;;;9.63;;
30617;SDS011;17384;51.214;9.202;2023-12-04T13:47:42;25.13;;;10.30;;
30617;SDS011;17384;51.214;9.202;2023-12-04T13:50:08;23.52;;;10.25;;
30617;SDS011;17384;51.214;9.202;2023-12-04T13:52:35;21.88;;;11.48;;
30617;SDS011;17384;51.214;9.202;2023-12-04T13:55:01;18.58;;;10.50;;
30617;SDS011;17384;51.214;9.202;2023-12-04T13:57:36;20.50;;;10.63;;
30617;SDS011;17384;51.214;9.202;2023-12-04T14:00:09;24.30;;;11.20;;
30617;SDS011;17384;51.214;9.202;2023-12-04T14:02:35;24.00;;;11.68;;
30617;SDS011;17384;51.214;9.202;2023-12-04T14:05:02;24.10;;;11.38;;
30617;SDS011;17384;51.214;9.202;2023-12-04T14:07:28;18.92;;;10.05;;
30617;SDS011;17384;51.214;9.202;2023-12-04T14:09:54;19.75;;;10.27;;
30617;SDS011;17384;51.214;9.202;2023-12-04T14:12:19;19.25;;;10.75;;
30617;SDS011;17384;51.214;9.202;2023-12-04T14:14:45;25.00;;;11.23;;
30617;SDS011;17384;51.214;9.202;2023-12-04T14:17:10;17.20;;;9.73;;
30617;SDS011;17384;51.214;9.202;2023-12-04T14:19:37;23.15;;;11.95;;
30617;SDS011;17384;51.214;9.202;2023-12-04T14:22:04;23.55;;;10.88;;